CA-0488 weather

Public forecast

Using degrees Celsius for public forecast. Weather courtesy of forecast.io.

Closest aviation weather report (METAR) to Toronto Aerodrome

Closest report is Billy Bishop Toronto City Centre Airport, 7.8 nm (14.5 km) SSE. Retrieved 2020/08/12 14:00 UTC (24 minutes ago):

CYTZ 121400Z AUTO 21004KT 9SM CLR 21/15 A3009 RMK SLP192 DENSITY ALT 800FT

Closest aviation forecast (TAF) to Toronto Aerodrome

Closest forecast is Billy Bishop Toronto City Centre Airport, 7.8 nm (14.5 km) SSE. Retrieved 2020/08/12 14:40 UTC (0 seconds ago):

TAF CYTZ 121338Z 1214/1314 21005KT P6SM SCT200 FM130200 VRB03KT P6SM SKC BECMG 1310/1312 36007KT RMK FCST BASED ON AUTO OBS NXT FCST BY 122000Z